Time;durP1;ratioP1;P1;durP2;ratioP2;P2;SDS_P1;SDS_P2;PMS_P1;PMS_P2;Temp;Humidity;BMP_temperature;BMP_pressure;BME280_temperature;BME280_humidity;BME280_pressure;Samples;Min_cycle;Max_cycle;Signal;HPM_P1;HPM_P2
2023/01/31 00:00:06;;;;;;;15.45;2.90;;;4.10;90.20;;;;;;5000910;28;20033;-82
2023/01/31 00:02:32;;;;;;;16.23;3.80;;;4.10;90.10;;;;;;5033393;28;20187;-82
2023/01/31 00:04:59;;;;;;;14.82;3.38;;;4.10;90.10;;;;;;5017112;28;20372;-82
2023/01/31 00:07:25;;;;;;;18.73;3.80;;;4.10;90.10;;;;;;5033101;28;20080;-81
2023/01/31 00:09:50;;;;;;;23.98;4.57;;;4.00;90.30;;;;;;5000596;28;20085;-83
2023/01/31 00:12:16;;;;;;;16.73;3.60;;;4.00;90.50;;;;;;5016550;28;20556;-83
2023/01/31 00:14:42;;;;;;;18.33;3.72;;;4.00;90.40;;;;;;5000258;28;20044;-81
2023/01/31 00:17:07;;;;;;;21.45;4.82;;;4.00;90.50;;;;;;4984238;28;20041;-82
2023/01/31 00:19:33;;;;;;;15.52;3.38;;;4.00;90.30;;;;;;5016502;28;20045;-83
2023/01/31 00:21:59;;;;;;;21.27;3.70;;;3.80;90.40;;;;;;4984170;28;20037;-81
2023/01/31 00:24:24;;;;;;;20.85;3.28;;;3.80;90.60;;;;;;5016422;28;20124;-83
2023/01/31 00:26:55;;;;;;;19.75;3.40;;;3.70;90.50;;;;;;4984249;28;20044;-83
2023/01/31 00:29:23;;;;;;;18.08;3.38;;;3.60;90.60;;;;;;5032734;28;20076;-81
2023/01/31 00:31:49;;;;;;;18.00;3.63;;;3.60;90.90;;;;;;5032504;28;20041;-81
2023/01/31 00:34:15;;;;;;;18.10;3.20;;;3.60;90.70;;;;;;5016417;28;20123;-81
2023/01/31 00:36:41;;;;;;;20.02;3.53;;;3.60;90.80;;;;;;5000062;28;20091;-82
2023/01/31 00:39:08;;;;;;;15.95;4.05;;;3.50;90.80;;;;;;5000308;28;20486;-82
2023/01/31 00:41:35;;;;;;;16.40;2.72;;;3.50;91.00;;;;;;5032475;28;20124;-81
2023/01/31 00:44:01;;;;;;;14.13;3.05;;;3.60;90.90;;;;;;4999736;28;20107;-81
2023/01/31 00:46:27;;;;;;;14.40;3.30;;;3.60;91.00;;;;;;4999838;28;20045;-83
2023/01/31 00:48:55;;;;;;;18.33;4.32;;;3.60;91.00;;;;;;4983724;28;20042;-81
2023/01/31 00:51:22;;;;;;;21.55;3.45;;;3.50;91.20;;;;;;5015917;28;20041;-81
2023/01/31 00:53:49;;;;;;;23.25;3.72;;;3.60;91.30;;;;;;5032393;28;20041;-81
2023/01/31 00:56:21;;;;;;;17.55;3.95;;;3.60;91.50;;;;;;5032211;28;20038;-83
2023/01/31 00:58:48;;;;;;;15.75;3.72;;;3.60;91.70;;;;;;5016122;28;20384;-82
2023/01/31 01:01:23;;;;;;;27.35;5.10;;;3.50;92.00;;;;;;5015931;28;20041;-82
2023/01/31 01:03:49;;;;;;;16.30;4.13;;;3.50;91.90;;;;;;5031243;28;20076;-82
2023/01/31 01:06:15;;;;;;;19.25;2.88;;;3.50;92.00;;;;;;5015696;28;20042;-83
2023/01/31 01:08:42;;;;;;;18.15;3.10;;;3.50;92.10;;;;;;4983541;28;20045;-82
2023/01/31 01:11:20;;;;;;;21.23;6.03;;;3.40;92.10;;;;;;5015775;28;20049;-82
2023/01/31 01:13:46;;;;;;;14.68;3.00;;;3.40;92.40;;;;;;5032154;28;20083;-82
2023/01/31 01:16:16;;;;;;;19.23;3.95;;;3.30;92.50;;;;;;5015573;28;20044;-82
2023/01/31 01:18:45;;;;;;;20.95;3.45;;;3.30;92.50;;;;;;5032369;28;20045;-82
2023/01/31 01:21:23;;;;;;;17.10;3.65;;;3.30;92.60;;;;;;5015598;28;20084;-81
2023/01/31 01:23:50;;;;;;;27.65;4.45;;;3.30;92.60;;;;;;5032348;28;20041;-82
2023/01/31 01:26:18;;;;;;;18.10;2.80;;;3.30;92.70;;;;;;5031846;28;20449;-83
2023/01/31 01:28:44;;;;;;;23.17;3.38;;;3.30;92.70;;;;;;5015814;28;20445;-82
2023/01/31 01:31:12;;;;;;;20.13;4.38;;;3.30;92.70;;;;;;5015397;28;20045;-82
2023/01/31 01:33:37;;;;;;;20.52;3.58;;;3.30;92.90;;;;;;5015364;28;20049;-82
2023/01/31 01:36:06;;;;;;;24.67;3.83;;;3.30;93.10;;;;;;4998933;28;20557;-82
2023/01/31 01:38:35;;;;;;;24.65;4.88;;;3.40;93.10;;;;;;5032160;28;20087;-81
2023/01/31 01:41:02;;;;;;;18.65;3.25;;;3.30;93.20;;;;;;5031906;28;20045;-84
2023/01/31 01:43:50;;;;;;;15.27;3.15;;;3.40;93.00;;;;;;4999139;28;20476;-81
2023/01/31 01:46:24;;;;;;;18.98;3.85;;;3.50;93.20;;;;;;5015300;28;20053;-83
2023/01/31 01:49:12;;;;;;;15.35;3.85;;;3.40;93.10;;;;;;5015371;28;20054;-83
2023/01/31 01:51:39;;;;;;;17.02;3.40;;;3.40;93.20;;;;;;5015182;28;20199;-82
2023/01/31 01:54:11;;;;;;;12.50;2.65;;;3.50;93.50;;;;;;5016197;28;20095;-82
2023/01/31 01:56:42;;;;;;;18.00;2.88;;;3.60;93.50;;;;;;5032002;28;20467;-83
2023/01/31 01:59:21;;;;;;;18.20;2.88;;;3.60;93.20;;;;;;5015371;28;20073;-82
2023/01/31 02:01:49;;;;;;;22.67;3.03;;;3.80;93.20;;;;;;5015307;28;20088;-82
2023/01/31 02:04:18;;;;;;;16.67;4.20;;;3.80;93.20;;;;;;5015507;28;20388;-83
2023/01/31 02:06:45;;;;;;;18.50;3.47;;;3.90;93.60;;;;;;5015397;28;20041;-82
2023/01/31 02:09:35;;;;;;;21.30;3.45;;;3.90;93.40;;;;;;5015094;28;20042;-82
2023/01/31 02:12:00;;;;;;;16.23;4.13;;;3.90;93.40;;;;;;5014908;28;20054;-82
2023/01/31 02:14:26;;;;;;;16.52;3.55;;;4.00;93.60;;;;;;5000549;28;20514;-81
2023/01/31 02:16:52;;;;;;;21.35;3.88;;;4.00;93.90;;;;;;5035130;28;20038;-83
2023/01/31 02:19:47;;;;;;;14.57;3.17;;;4.00;93.90;;;;;;4986111;28;20033;-82
2023/01/31 02:22:38;;;;;;;18.02;3.15;;;4.00;93.60;;;;;;5009753;28;20050;-82
2023/01/31 02:25:35;;;;;;;14.52;2.50;;;4.00;93.60;;;;;;5019050;28;20392;-83
2023/01/31 02:28:32;;;;;;;19.33;4.15;;;4.00;93.70;;;;;;5034931;28;20048;-82
2023/01/31 02:31:22;;;;;;;13.65;3.10;;;4.00;93.60;;;;;;5018526;28;20042;-82
2023/01/31 02:33:56;;;;;;;15.70;3.42;;;3.90;93.60;;;;;;5018328;28;20386;-82
2023/01/31 02:36:47;;;;;;;15.32;3.40;;;3.90;93.50;;;;;;5018337;28;20068;-81
2023/01/31 02:39:40;;;;;;;21.17;3.10;;;4.00;93.70;;;;;;5018389;28;20046;-82
2023/01/31 02:42:12;;;;;;;23.38;3.80;;;3.90;94.30;;;;;;5034452;28;20103;-82
2023/01/31 02:44:58;;;;;;;19.20;3.70;;;3.90;94.20;;;;;;5018332;28;20494;-81
2023/01/31 02:47:46;;;;;;;18.70;3.00;;;4.00;93.80;;;;;;5014219;28;20050;-81
2023/01/31 02:50:21;;;;;;;18.67;4.10;;;4.00;94.50;;;;;;5018256;28;20033;-81
2023/01/31 02:53:01;;;;;;;20.77;3.83;;;4.10;94.10;;;;;;5018081;28;20045;-83
2023/01/31 02:58:19;;;;;;;20.85;3.40;;;4.10;94.00;;;;;;5034693;28;20042;-83
2023/01/31 03:00:46;;;;;;;15.82;3.30;;;4.20;93.90;;;;;;5017912;28;20033;-82
2023/01/31 03:03:24;;;;;;;16.90;3.58;;;4.30;94.10;;;;;;5034314;28;20041;-82
2023/01/31 03:06:24;;;;;;;13.70;3.33;;;4.30;94.20;;;;;;5034295;28;20056;-82
2023/01/31 03:08:52;;;;;;;20.80;3.60;;;4.40;94.00;;;;;;5034465;28;20095;-82
2023/01/31 03:11:21;;;;;;;19.83;3.10;;;4.50;93.90;;;;;;5034455;28;20045;-82
2023/01/31 03:14:02;;;;;;;16.52;3.13;;;4.60;94.00;;;;;;5034074;28;20531;-83
2023/01/31 03:17:36;;;;;;;24.23;3.97;;;4.60;94.00;;;;;;5033996;28;20060;-82
2023/01/31 03:20:01;;;;;;;22.90;3.47;;;4.60;93.90;;;;;;5029592;28;20041;-82
2023/01/31 03:22:34;;;;;;;27.17;5.25;;;4.70;93.90;;;;;;5032889;28;20053;-81
2023/01/31 03:25:01;;;;;;;15.65;3.60;;;4.70;93.90;;;;;;5033476;28;20041;-81
2023/01/31 03:27:28;;;;;;;15.68;3.65;;;4.70;94.20;;;;;;5016831;28;20450;-82
2023/01/31 03:30:03;;;;;;;21.38;4.03;;;4.80;94.00;;;;;;5033570;28;20037;-82
2023/01/31 03:32:33;;;;;;;16.45;3.90;;;4.80;94.40;;;;;;5033694;28;20124;-81
2023/01/31 03:35:00;;;;;;;16.73;2.63;;;4.80;94.20;;;;;;5033953;28;20438;-83
2023/01/31 03:37:31;;;;;;;21.77;6.82;;;4.90;94.30;;;;;;5016946;28;20439;-81
2023/01/31 03:40:03;;;;;;;18.73;4.97;;;5.00;94.20;;;;;;5016948;28;20201;-81
2023/01/31 03:42:46;;;;;;;28.38;5.00;;;5.00;94.50;;;;;;5033172;28;20114;-82
2023/01/31 03:45:16;;;;;;;21.80;4.32;;;5.00;94.90;;;;;;5033256;28;20107;-82
2023/01/31 03:47:45;;;;;;;18.95;3.97;;;5.00;94.80;;;;;;5017092;28;20115;-82
2023/01/31 03:50:21;;;;;;;18.27;4.45;;;5.10;94.90;;;;;;5033224;28;20156;-82
2023/01/31 03:53:01;;;;;;;21.17;4.20;;;5.10;94.50;;;;;;5032992;28;20132;-82
2023/01/31 03:55:35;;;;;;;36.58;5.13;;;5.10;94.90;;;;;;5016510;28;20038;-82
2023/01/31 03:58:04;;;;;;;20.25;4.13;;;5.10;95.20;;;;;;5016556;28;20049;-83
2023/01/31 04:00:35;;;;;;;25.15;5.10;;;5.10;95.00;;;;;;5016394;28;20034;-81
2023/01/31 04:03:17;;;;;;;20.45;4.97;;;5.10;95.30;;;;;;5016673;28;20048;-82
2023/01/31 04:05:44;;;;;;;25.63;5.25;;;5.20;95.00;;;;;;5032991;28;20049;-82
2023/01/31 04:08:10;;;;;;;19.40;4.55;;;5.10;94.90;;;;;;5000600;28;20391;-81
2023/01/31 04:10:36;;;;;;;27.25;5.97;;;5.10;95.20;;;;;;5016433;28;20048;-81
2023/01/31 04:13:02;;;;;;;32.45;5.35;;;5.20;94.90;;;;;;5032988;28;20083;-82
2023/01/31 04:15:28;;;;;;;21.95;4.82;;;5.20;95.00;;;;;;4983668;28;20127;-83
2023/01/31 04:17:54;;;;;;;22.85;4.40;;;5.20;95.20;;;;;;5016222;28;20044;-82
2023/01/31 04:20:20;;;;;;;19.42;3.85;;;5.20;95.00;;;;;;5032807;28;20037;-82
2023/01/31 04:22:45;;;;;;;27.48;5.65;;;5.20;95.10;;;;;;5032901;28;20045;-82
2023/01/31 04:25:11;;;;;;;24.15;4.88;;;5.10;95.00;;;;;;4999994;28;20100;-82
2023/01/31 04:27:37;;;;;;;23.95;8.52;;;5.10;95.10;;;;;;5000031;28;20482;-81
2023/01/31 04:30:05;;;;;;;28.30;5.47;;;5.10;95.20;;;;;;4983657;28;20072;-81
2023/01/31 04:32:31;;;;;;;27.85;5.13;;;5.10;95.20;;;;;;5016124;28;20077;-82
2023/01/31 04:34:56;;;;;;;25.92;6.28;;;5.10;95.50;;;;;;4999719;28;20521;-82
2023/01/31 04:37:22;;;;;;;25.38;4.85;;;5.10;95.40;;;;;;4999287;28;20048;-82
2023/01/31 04:39:48;;;;;;;21.60;4.90;;;5.10;95.30;;;;;;4999491;28;20044;-82
2023/01/31 04:42:14;;;;;;;28.88;6.82;;;5.10;95.30;;;;;;4983580;28;20054;-82
2023/01/31 04:44:40;;;;;;;33.33;6.40;;;5.20;95.30;;;;;;5032209;28;20501;-81
2023/01/31 04:47:06;;;;;;;27.02;4.97;;;5.10;95.20;;;;;;5015900;28;20167;-82
2023/01/31 04:49:31;;;;;;;31.23;5.93;;;5.20;95.30;;;;;;4999272;28;20048;-81
2023/01/31 04:51:57;;;;;;;31.08;6.80;;;5.10;95.30;;;;;;5015555;28;20049;-82
2023/01/31 04:54:23;;;;;;;26.02;5.55;;;5.10;95.30;;;;;;4999531;28;20056;-82
2023/01/31 04:56:49;;;;;;;23.30;5.55;;;5.10;95.40;;;;;;4999375;28;20390;-83
2023/01/31 04:59:14;;;;;;;27.38;6.50;;;5.10;95.40;;;;;;5015486;28;20399;-82
2023/01/31 05:01:40;;;;;;;27.85;7.45;;;5.00;95.60;;;;;;4983271;28;20188;-81
2023/01/31 05:04:07;;;;;;;26.02;6.53;;;5.10;95.40;;;;;;4999186;28;20041;-82
2023/01/31 05:06:33;;;;;;;30.08;6.95;;;5.00;95.40;;;;;;4982948;28;20042;-83
2023/01/31 05:09:00;;;;;;;22.17;5.38;;;5.10;95.40;;;;;;4999320;28;20052;-82
2023/01/31 05:11:27;;;;;;;25.20;5.85;;;5.00;95.50;;;;;;5015544;28;20130;-82
2023/01/31 05:13:53;;;;;;;25.90;4.85;;;5.10;95.40;;;;;;5015331;28;20159;-81
2023/01/31 05:16:18;;;;;;;25.08;5.20;;;5.10;95.40;;;;;;5015214;28;20473;-82
2023/01/31 05:18:44;;;;;;;25.48;5.70;;;5.10;95.40;;;;;;5015785;28;20066;-82
2023/01/31 05:21:10;;;;;;;24.50;5.30;;;5.10;95.30;;;;;;5015390;28;20083;-81
2023/01/31 05:23:35;;;;;;;20.58;5.20;;;5.10;95.30;;;;;;5015459;28;20045;-82
2023/01/31 05:26:02;;;;;;;22.73;5.43;;;5.20;95.30;;;;;;5015202;28;20037;-82
2023/01/31 05:28:27;;;;;;;31.63;5.57;;;5.20;95.30;;;;;;5031600;28;20041;-82
2023/01/31 05:30:53;;;;;;;29.75;5.82;;;5.20;95.20;;;;;;4999120;28;20063;-81
2023/01/31 05:33:19;;;;;;;24.35;6.88;;;5.20;95.10;;;;;;5015197;28;20038;-83
2023/01/31 05:35:48;;;;;;;31.75;6.07;;;5.30;95.10;;;;;;5015048;28;20072;-82
2023/01/31 05:38:14;;;;;;;34.63;5.65;;;5.40;94.90;;;;;;5015331;28;20038;-82
2023/01/31 05:40:40;;;;;;;23.58;5.43;;;5.40;94.70;;;;;;5015396;28;20376;-81
2023/01/31 05:43:06;;;;;;;27.92;5.70;;;5.40;94.70;;;;;;4998517;28;20064;-81
2023/01/31 05:45:31;;;;;;;21.90;5.57;;;5.50;94.80;;;;;;4982374;28;20072;-83
2023/01/31 05:47:58;;;;;;;22.73;5.75;;;5.50;94.50;;;;;;5014929;28;20048;-82
2023/01/31 05:50:24;;;;;;;30.33;6.63;;;5.60;94.40;;;;;;5034971;28;20037;-81
2023/01/31 05:52:51;;;;;;;24.40;4.90;;;5.60;94.20;;;;;;5018801;28;20041;-81
2023/01/31 05:55:17;;;;;;;28.70;7.90;;;5.60;94.20;;;;;;5002507;28;20040;-81
2023/01/31 05:57:43;;;;;;;17.58;5.35;;;5.70;94.00;;;;;;5018888;28;20095;-82
2023/01/31 06:00:09;;;;;;;24.98;5.90;;;5.70;94.00;;;;;;5019066;28;20045;-82
2023/01/31 06:02:35;;;;;;;22.48;4.25;;;5.80;93.50;;;;;;5002429;28;20041;-81
2023/01/31 06:05:00;;;;;;;22.45;5.95;;;5.90;93.40;;;;;;5002574;28;20402;-82
2023/01/31 06:07:26;;;;;;;19.40;4.20;;;5.90;93.10;;;;;;5002496;28;20483;-82
2023/01/31 06:09:52;;;;;;;18.67;4.82;;;6.00;93.00;;;;;;4986040;28;20091;-82
2023/01/31 06:12:17;;;;;;;17.52;3.47;;;6.00;92.70;;;;;;5002103;28;20042;-81
2023/01/31 06:14:44;;;;;;;21.00;4.90;;;6.00;92.80;;;;;;5018673;28;20120;-82
2023/01/31 06:17:11;;;;;;;21.10;4.57;;;6.10;92.50;;;;;;5002551;28;20038;-82
2023/01/31 06:19:37;;;;;;;23.13;5.47;;;6.10;92.40;;;;;;5018655;28;20399;-82
2023/01/31 06:22:04;;;;;;;21.52;4.63;;;6.10;92.30;;;;;;5018393;28;20044;-81
2023/01/31 06:24:30;;;;;;;14.02;3.25;;;6.10;92.10;;;;;;5034660;28;20090;-82
2023/01/31 06:26:55;;;;;;;29.15;5.03;;;6.10;92.10;;;;;;5018474;28;20128;-83
2023/01/31 06:29:21;;;;;;;18.05;3.83;;;6.20;92.00;;;;;;5018332;28;20453;-82
2023/01/31 06:31:47;;;;;;;20.02;3.78;;;6.10;92.10;;;;;;5018341;28;20045;-83
2023/01/31 06:34:13;;;;;;;15.23;3.83;;;6.20;92.00;;;;;;5018341;28;20402;-82
2023/01/31 06:36:38;;;;;;;14.45;2.88;;;6.20;92.10;;;;;;4985864;28;20411;-81
2023/01/31 06:39:04;;;;;;;13.00;3.63;;;6.30;92.20;;;;;;5018283;28;20046;-81
2023/01/31 06:41:30;;;;;;;20.00;4.05;;;6.20;92.10;;;;;;5034910;28;20041;-82
2023/01/31 06:43:56;;;;;;;20.00;3.97;;;6.10;92.20;;;;;;5001733;28;20096;-81
2023/01/31 06:46:21;;;;;;;16.33;4.53;;;6.10;92.30;;;;;;5001793;28;20041;-82
2023/01/31 06:48:47;;;;;;;20.10;2.95;;;6.10;92.50;;;;;;5017970;28;20044;-82
2023/01/31 06:51:16;;;;;;;18.20;3.83;;;6.10;92.60;;;;;;5017970;28;20041;-81
2023/01/31 06:53:42;;;;;;;13.38;3.83;;;6.00;92.60;;;;;;5034350;28;20037;-82
2023/01/31 06:56:08;;;;;;;14.63;3.33;;;6.00;92.70;;;;;;5001337;28;20103;-82
2023/01/31 06:58:34;;;;;;;14.18;3.28;;;5.90;93.00;;;;;;5001374;28;20080;-82
2023/01/31 07:01:08;;;;;;;13.93;3.25;;;5.80;93.10;;;;;;5034133;28;20099;-83
2023/01/31 07:03:34;;;;;;;22.98;4.38;;;5.90;93.30;;;;;;5017984;28;20045;-82
2023/01/31 07:06:00;;;;;;;13.27;3.25;;;5.90;93.30;;;;;;5017784;28;20407;-83
2023/01/31 07:08:25;;;;;;;17.63;3.65;;;6.00;93.50;;;;;;5001526;28;20510;-82
2023/01/31 07:10:51;;;;;;;20.73;3.60;;;5.90;93.40;;;;;;5017796;28;20617;-82
2023/01/31 07:13:18;;;;;;;20.23;3.33;;;5.90;93.50;;;;;;5000908;28;20102;-82
2023/01/31 07:15:44;;;;;;;15.82;3.40;;;5.90;93.70;;;;;;4985028;28;20041;-81
2023/01/31 07:18:11;;;;;;;16.77;4.22;;;6.00;93.40;;;;;;5017194;28;20088;-82
2023/01/31 07:20:41;;;;;;;14.38;3.08;;;5.90;93.50;;;;;;4985140;28;20045;-82
2023/01/31 07:23:07;;;;;;;18.60;3.75;;;5.90;93.60;;;;;;5017070;28;20064;-82
2023/01/31 07:25:34;;;;;;;15.25;3.42;;;5.90;93.70;;;;;;5016919;28;20127;-81
2023/01/31 07:28:01;;;;;;;10.57;3.00;;;6.00;93.60;;;;;;5017077;28;20128;-82
2023/01/31 07:30:27;;;;;;;20.15;3.22;;;6.00;93.50;;;;;;5001129;28;20129;-82
2023/01/31 07:32:53;;;;;;;12.52;2.30;;;6.00;93.60;;;;;;5010196;28;20045;-82
2023/01/31 07:35:19;;;;;;;16.90;3.28;;;6.00;93.60;;;;;;5012117;28;20033;-82
2023/01/31 07:37:45;;;;;;;18.52;4.93;;;6.00;93.60;;;;;;5010155;28;20046;-82
2023/01/31 07:40:13;;;;;;;19.10;3.53;;;6.00;93.70;;;;;;4985198;28;20041;-82
2023/01/31 07:42:39;;;;;;;13.57;3.03;;;6.00;93.70;;;;;;5018708;28;20056;-82
2023/01/31 07:45:06;;;;;;;15.10;3.83;;;5.90;93.90;;;;;;5012553;28;20787;-81
2023/01/31 07:47:32;;;;;;;15.30;3.67;;;6.00;93.90;;;;;;5016984;28;20080;-81
2023/01/31 07:49:58;;;;;;;16.55;3.00;;;6.10;94.00;;;;;;5000575;28;20081;-82
2023/01/31 07:52:23;;;;;;;19.05;3.72;;;6.10;94.00;;;;;;5016529;28;20128;-82
2023/01/31 07:54:49;;;;;;;18.10;4.05;;;6.10;94.20;;;;;;5009969;28;20042;-82
2023/01/31 07:57:18;;;;;;;21.08;4.22;;;6.10;94.40;;;;;;4981049;28;20038;-83
2023/01/31 07:59:44;;;;;;;24.27;4.35;;;6.10;94.40;;;;;;4981589;28;20042;-82
2023/01/31 08:05:01;;;;;;;17.70;3.88;;;6.20;94.60;;;;;;5013370;28;20052;-81
2023/01/31 08:07:28;;;;;;;23.63;5.55;;;6.30;94.40;;;;;;4996784;28;20038;-82
2023/01/31 08:09:54;;;;;;;17.70;3.30;;;6.30;94.40;;;;;;4980874;28;20427;-82
2023/01/31 08:12:20;;;;;;;15.27;3.65;;;6.30;94.60;;;;;;4980517;28;20038;-81
2023/01/31 08:14:46;;;;;;;14.82;3.42;;;6.30;94.70;;;;;;5022088;28;20045;-81
2023/01/31 08:17:12;;;;;;;18.73;4.80;;;6.30;94.60;;;;;;5016225;28;20037;-80
2023/01/31 08:19:37;;;;;;;14.15;3.95;;;6.30;94.70;;;;;;5016113;28;20116;-82
2023/01/31 08:22:04;;;;;;;20.45;4.10;;;6.30;94.60;;;;;;5016235;28;20077;-81
2023/01/31 08:24:31;;;;;;;15.70;3.42;;;6.30;94.70;;;;;;4999689;28;20041;-81
2023/01/31 08:26:57;;;;;;;19.58;4.10;;;6.40;94.60;;;;;;4999638;28;20507;-82
2023/01/31 08:29:23;;;;;;;15.63;4.68;;;6.30;94.60;;;;;;5032438;28;20049;-81
2023/01/31 08:31:50;;;;;;;18.88;3.95;;;6.40;94.60;;;;;;4999647;28;20498;-80
2023/01/31 08:34:16;;;;;;;20.92;4.32;;;6.30;94.70;;;;;;4999461;28;20135;-80
2023/01/31 08:36:42;;;;;;;24.73;4.75;;;6.40;94.60;;;;;;5016112;28;20483;-81
2023/01/31 08:39:08;;;;;;;20.90;4.63;;;6.40;94.40;;;;;;5015814;28;20086;-81
2023/01/31 08:41:35;;;;;;;17.33;3.20;;;6.40;94.50;;;;;;4999592;28;20095;-81
2023/01/31 08:44:03;;;;;;;21.20;3.90;;;6.40;94.40;;;;;;5032091;28;20053;-82
2023/01/31 08:46:34;;;;;;;21.38;4.13;;;6.40;94.40;;;;;;5015517;28;20130;-81
2023/01/31 08:49:03;;;;;;;17.33;4.03;;;6.40;94.40;;;;;;5015727;28;20056;-81
2023/01/31 08:51:29;;;;;;;17.88;5.60;;;6.40;94.50;;;;;;5032135;28;20052;-81
2023/01/31 08:53:54;;;;;;;17.40;3.70;;;6.40;94.40;;;;;;5032087;28;20128;-82
2023/01/31 08:56:24;;;;;;;22.45;5.28;;;6.40;94.30;;;;;;5015504;28;20041;-82
2023/01/31 08:58:50;;;;;;;22.20;4.78;;;6.40;94.30;;;;;;5016128;28;20037;-81
2023/01/31 09:01:18;;;;;;;20.33;3.45;;;6.50;94.30;;;;;;5015585;28;20072;-81
2023/01/31 09:03:45;;;;;;;23.88;6.15;;;6.50;94.50;;;;;;5015950;28;20081;-81
2023/01/31 09:06:17;;;;;;;18.95;3.38;;;6.50;94.30;;;;;;4999657;28;20107;-82
2023/01/31 09:08:43;;;;;;;26.63;5.55;;;6.50;94.50;;;;;;5015496;28;20124;-81
2023/01/31 09:11:09;;;;;;;23.52;4.38;;;6.60;94.30;;;;;;5031899;28;20077;-80
2023/01/31 09:13:35;;;;;;;27.95;4.88;;;6.60;94.30;;;;;;5015516;28;20077;-81
2023/01/31 09:16:07;;;;;;;24.23;4.90;;;6.70;94.30;;;;;;5031904;28;20461;-81
2023/01/31 09:18:34;;;;;;;25.10;5.38;;;6.70;94.40;;;;;;5031958;28;20043;-82
2023/01/31 09:21:07;;;;;;;27.15;4.88;;;6.80;94.30;;;;;;5015518;28;20034;-81
2023/01/31 09:23:33;;;;;;;21.93;4.50;;;6.80;94.20;;;;;;5015937;28;20045;-82
2023/01/31 09:25:59;;;;;;;25.65;7.95;;;6.80;94.10;;;;;;5035802;28;20077;-81
2023/01/31 09:28:25;;;;;;;20.83;4.30;;;6.90;94.00;;;;;;5019388;28;20076;-82
2023/01/31 09:30:54;;;;;;;24.48;5.30;;;6.90;94.00;;;;;;5003265;28;20037;-81
2023/01/31 09:33:21;;;;;;;29.67;4.60;;;6.90;94.00;;;;;;4987534;28;20042;-81
2023/01/31 09:36:00;;;;;;;23.13;5.00;;;6.90;94.20;;;;;;5003373;28;20041;-81
2023/01/31 09:38:26;;;;;;;20.75;4.45;;;6.90;94.10;;;;;;5003334;28;20121;-82
2023/01/31 09:40:53;;;;;;;20.40;3.70;;;6.90;93.90;;;;;;5019140;28;20124;-82
2023/01/31 09:43:24;;;;;;;17.48;4.63;;;7.00;93.80;;;;;;5002718;28;20061;-81
2023/01/31 09:45:57;;;;;;;29.73;6.60;;;6.90;93.90;;;;;;5035608;28;20052;-81
2023/01/31 09:48:28;;;;;;;19.13;5.32;;;7.00;94.00;;;;;;5035584;28;20045;-80
2023/01/31 09:50:57;;;;;;;20.45;3.85;;;7.00;94.00;;;;;;5019342;28;20041;-82
2023/01/31 09:53:29;;;;;;;13.95;4.40;;;7.00;94.10;;;;;;5035614;28;20037;-80
2023/01/31 09:56:00;;;;;;;27.67;3.65;;;7.00;94.20;;;;;;5019332;28;20376;-81
2023/01/31 09:58:47;;;;;;;24.48;4.38;;;7.00;94.40;;;;;;5035667;28;20394;-82
2023/01/31 10:01:37;;;;;;;24.52;3.95;;;6.90;94.30;;;;;;5019156;28;20033;-82
2023/01/31 10:04:23;;;;;;;19.27;4.53;;;6.90;94.80;;;;;;5020174;28;20046;-82
2023/01/31 10:07:00;;;;;;;23.20;4.82;;;7.00;94.80;;;;;;5035624;28;20052;-82
2023/01/31 10:09:35;;;;;;;25.33;4.97;;;6.90;95.10;;;;;;5035470;28;20077;-81
2023/01/31 10:12:12;;;;;;;19.33;4.57;;;6.80;95.10;;;;;;5035417;28;20042;-80
2023/01/31 10:14:49;;;;;;;22.70;5.00;;;6.90;95.20;;;;;;5018736;28;20041;-81
2023/01/31 10:17:18;;;;;;;19.98;4.25;;;6.90;95.20;;;;;;5018601;28;20071;-82
2023/01/31 10:19:49;;;;;;;9.10;3.72;;;7.00;95.20;;;;;;5018610;28;20069;-82
2023/01/31 10:22:36;;;;;;;24.80;4.50;;;7.00;95.00;;;;;;5035160;28;20069;-81
2023/01/31 10:25:20;;;;;;;17.50;3.35;;;7.00;94.80;;;;;;5034948;28;20067;-82
2023/01/31 10:27:54;;;;;;;17.52;3.80;;;7.00;94.50;;;;;;5018514;28;20045;-82
2023/01/31 10:30:25;;;;;;;19.05;4.75;;;7.10;94.40;;;;;;5034857;28;20127;-81
2023/01/31 10:32:59;;;;;;;19.85;4.22;;;7.10;94.20;;;;;;5018515;28;20124;-83
2023/01/31 10:35:34;;;;;;;19.67;4.20;;;7.10;94.10;;;;;;5017626;28;20037;-82
2023/01/31 10:38:18;;;;;;;20.08;3.92;;;7.10;94.00;;;;;;5017923;28;20487;-81
2023/01/31 10:40:49;;;;;;;18.65;3.80;;;7.20;94.20;;;;;;5018373;28;20068;-83
2023/01/31 10:43:26;;;;;;;18.48;4.03;;;7.10;94.20;;;;;;5034075;28;20392;-83
2023/01/31 10:45:52;;;;;;;22.63;3.85;;;7.20;94.10;;;;;;5018296;28;20045;-83
2023/01/31 10:48:24;;;;;;;22.02;4.65;;;7.20;93.90;;;;;;5018519;28;20052;-81
2023/01/31 10:51:25;;;;;;;20.73;4.07;;;7.20;94.00;;;;;;5034527;28;20041;-81
2023/01/31 10:54:12;;;;;;;21.45;3.80;;;7.30;93.90;;;;;;5017910;28;20097;-82
2023/01/31 10:56:46;;;;;;;12.23;2.83;;;7.40;93.60;;;;;;5034883;28;20068;-82
2023/01/31 10:59:23;;;;;;;;;;;7.40;93.60;;;;;;5018570;28;20049;-82
2023/01/31 11:01:49;;;;;;;14.25;4.13;;;7.40;93.50;;;;;;5034596;28;20386;-82
2023/01/31 11:04:31;;;;;;;17.17;3.97;;;7.40;93.70;;;;;;5017828;28;20048;-81
2023/01/31 11:06:59;;;;;;;18.77;3.90;;;7.50;93.80;;;;;;5001666;28;20045;-82
2023/01/31 11:09:31;;;;;;;17.10;3.53;;;7.50;93.70;;;;;;5017888;28;20048;-82
2023/01/31 11:11:59;;;;;;;18.98;4.07;;;7.50;93.60;;;;;;5034087;28;20037;-83
2023/01/31 11:14:26;;;;;;;20.40;4.57;;;7.50;93.60;;;;;;5017451;28;20128;-83
2023/01/31 11:17:13;;;;;;;21.27;4.38;;;7.60;93.60;;;;;;5033952;28;20045;-82
2023/01/31 11:19:49;;;;;;;24.77;4.65;;;7.60;93.50;;;;;;5017722;28;20447;-81
2023/01/31 11:22:29;;;;;;;36.53;5.10;;;7.60;93.40;;;;;;5017785;28;20039;-82
2023/01/31 11:24:56;;;;;;;21.65;4.10;;;7.60;93.30;;;;;;5017596;28;20467;-82
2023/01/31 11:27:36;;;;;;;13.77;4.47;;;7.70;93.40;;;;;;5017213;28;20034;-82
2023/01/31 11:30:04;;;;;;;20.73;4.40;;;7.70;93.50;;;;;;5017357;28;20545;-82
2023/01/31 11:32:35;;;;;;;16.95;4.43;;;7.80;93.30;;;;;;5000731;28;20038;-83
2023/01/31 11:35:11;;;;;;;16.65;3.72;;;7.90;93.20;;;;;;5016895;28;20514;-81
2023/01/31 11:38:08;;;;;;;18.35;4.00;;;7.90;92.90;;;;;;5016945;28;20090;-80
2023/01/31 11:40:38;;;;;;;15.43;4.10;;;8.00;92.70;;;;;;5013144;28;20117;-83
2023/01/31 11:43:21;;;;;;;22.30;4.57;;;8.10;92.70;;;;;;5000668;28;20442;-84
2023/01/31 11:45:57;;;;;;;15.40;4.57;;;8.10;92.60;;;;;;5016681;28;20060;-82
2023/01/31 11:48:35;;;;;;;16.55;4.25;;;8.10;92.40;;;;;;5032639;28;20099;-83
2023/01/31 11:51:02;;;;;;;17.13;4.60;;;8.10;92.50;;;;;;5033261;28;20124;-81
2023/01/31 11:53:44;;;;;;;22.63;4.07;;;8.20;92.30;;;;;;5016635;28;20498;-81
2023/01/31 11:56:17;;;;;;;22.83;4.13;;;8.10;92.30;;;;;;5016657;28;20544;-83
2023/01/31 11:58:45;;;;;;;14.30;3.35;;;8.20;92.20;;;;;;5016854;28;20465;-83
2023/01/31 12:01:13;;;;;;;20.95;4.18;;;8.20;92.30;;;;;;5016630;28;20033;-82
2023/01/31 12:03:55;;;;;;;20.58;5.45;;;8.20;92.20;;;;;;5033037;28;20410;-82
2023/01/31 12:06:34;;;;;;;17.73;4.38;;;8.30;92.00;;;;;;5032831;28;20042;-82
2023/01/31 12:09:17;;;;;;;13.38;3.63;;;8.30;92.00;;;;;;5033056;28;20045;-82
2023/01/31 12:11:51;;;;;;;16.88;4.72;;;8.30;92.10;;;;;;5016280;28;20045;-83
2023/01/31 12:14:18;;;;;;;;;;;8.30;92.00;;;;;;5033171;28;20721;-82
2023/01/31 12:16:46;;;;;;;10.88;2.25;;;8.30;92.10;;;;;;5016572;28;20300;-81
2023/01/31 12:19:12;;;;;;;18.75;3.75;;;8.40;91.80;;;;;;5016219;28;20507;-82
2023/01/31 12:22:04;;;;;;;14.80;3.33;;;8.50;91.90;;;;;;5032824;28;20052;-82
2023/01/31 12:24:36;;;;;;;13.95;3.20;;;8.60;91.90;;;;;;5016533;28;20449;-83
2023/01/31 12:27:16;;;;;;;16.83;4.13;;;8.80;91.00;;;;;;5016315;28;20087;-82
2023/01/31 12:30:04;;;;;;;21.02;3.97;;;8.70;90.60;;;;;;5015901;28;20090;-81
2023/01/31 12:33:07;;;;;;;19.30;5.03;;;8.70;90.70;;;;;;5032313;28;20085;-82
2023/01/31 12:35:46;;;;;;;15.23;4.78;;;8.80;90.80;;;;;;5032594;28;20446;-80
2023/01/31 12:38:57;;;;;;;18.65;3.85;;;8.90;90.70;;;;;;5032528;28;20038;-81
2023/01/31 12:41:38;;;;;;;15.77;3.67;;;8.90;90.00;;;;;;5010475;28;20180;-83
2023/01/31 12:44:15;;;;;;;19.08;3.97;;;8.90;90.20;;;;;;5031908;28;20062;-83
2023/01/31 12:46:56;;;;;;;18.48;5.30;;;8.90;90.10;;;;;;5015906;28;20368;-83
2023/01/31 12:49:59;;;;;;;17.63;2.45;;;8.90;90.10;;;;;;5016080;28;20053;-82
2023/01/31 12:52:37;;;;;;;16.90;4.25;;;9.00;90.20;;;;;;5015485;28;20054;-83
2023/01/31 12:55:14;;;;;;;17.67;3.25;;;9.00;90.10;;;;;;5015537;28;20045;-82
2023/01/31 12:58:03;;;;;;;15.15;3.63;;;9.00;89.90;;;;;;5031832;28;20041;-82
2023/01/31 13:01:08;;;;;;;11.82;2.88;;;9.00;89.80;;;;;;5015766;28;20048;-82
2023/01/31 13:03:57;;;;;;;15.13;4.00;;;8.90;89.80;;;;;;5032230;28;20081;-82
2023/01/31 13:06:38;;;;;;;19.25;4.63;;;8.90;89.80;;;;;;5015328;28;20099;-82
2023/01/31 13:09:12;;;;;;;13.10;2.67;;;8.80;90.00;;;;;;5032067;28;20091;-84
2023/01/31 13:12:01;;;;;;;14.43;3.70;;;8.80;89.80;;;;;;5015482;28;20045;-82
2023/01/31 13:14:31;;;;;;;17.77;3.67;;;8.80;90.10;;;;;;5015433;28;20128;-81